Airfield :
LOGIN :

Register | Disclaimer

   EN    FR    IT 

 










Legend :    VFR   Marginal VFR   IFR   Intensive IFR   Very Intensive IFR
Visi :
Ceiling :
>= 8 km
>= 3000ft
5 to 8 km
1000 to 3000 ft
1500m to 5 km
500 to 1000 ft
800 to 1500m
200 to 500 ft
< 800m
< 200 ft
Symbols :   Thunderstorms  Fog  Heavy snow  Heavy precipitations  Wind > 20 kt
SIGMETs :     Misc.  Thunderstorms  Icing  Turbulence  Mountain Waves  Volcanic Ashes






- Airport Elevation : 396 ft


LFOZ - Orléans St Denis

CURRENT METAR :
  • 181730Z AUTO VRB03KT 9999 VCTS FEW047/// SCT096/// ///CB 24/18 Q1011

EXPIRED METARs :
  • 181700Z AUTO 28004KT 250V310 9999 FEW036 BKN096 BKN150 24/18 Q1012
  • 181630Z AUTO 26006KT 210V280 9999 BKN035 BKN043 BKN130 25/18 Q1011
  • 181600Z AUTO 23008KT 210V270 9999 FEW037 SCT066 BKN230 25/18 Q1011
  • 181530Z AUTO 22008KT 190V260 CAVOK 25/18 Q1011
  • 181500Z AUTO 21007KT 9999 SCT042 BKN054 BKN180 25/18 Q1011
  • 181430Z AUTO 26004KT 220V280 9999 FEW044 SCT056 BKN070 25/17 Q1011
  • 181400Z AUTO 23007KT 210V270 9999 FEW047 BKN060 OVC200 25/18 Q1011
  • 181330Z AUTO 21008KT 190V260 9999 SCT037 BKN049 26/17 Q1012

TAF N/A



MET'MAP, your aeronautical weather chart ! - Copyright ORBIFLY December 2007 - Disclaimer

ORBIFLY MET'MAP TEAM :

Programming & Development : Alexandra Zaïnal
Original concept : Baudouin d'Aumeries
Technical & hardware support : Manuel Goepfert
Assistance : Marc-Olivier Méhu




SOURCES & CREDITS :

   NOAA